Time;durP1;ratioP1;P1;durP2;ratioP2;P2;SDS_P1;SDS_P2;PMS_P1;PMS_P2;Temp;Humidity;BMP_temperature;BMP_pressure;BME280_temperature;BME280_humidity;BME280_pressure;Samples;Min_cycle;Max_cycle;Signal;HPM_P1;HPM_P2
2022/08/24 00:00:19;;;;;;;0.68;0.60;;;;;;;23.61;59.00;101228.06;5035141;28;20123;-68
2022/08/24 00:02:45;;;;;;;1.55;1.00;;;;;;;23.58;58.59;101233.63;5043322;28;20367;-68
2022/08/24 00:05:11;;;;;;;1.17;0.80;;;;;;;23.69;58.41;101223.91;5049957;28;20516;-68
2022/08/24 00:07:37;;;;;;;1.10;0.77;;;;;;;23.77;57.83;101227.28;5051461;28;20068;-68
2022/08/24 00:10:07;;;;;;;1.65;0.70;;;;;;;23.68;58.57;101227.88;5049370;28;20032;-68
2022/08/24 00:12:32;;;;;;;0.85;0.50;;;;;;;23.75;58.08;101222.19;5052405;28;20037;-68
2022/08/24 00:14:59;;;;;;;2.38;0.80;;;;;;;23.62;58.96;101226.84;5052449;28;20040;-68
2022/08/24 00:17:24;;;;;;;0.65;0.57;;;;;;;23.59;58.46;101226.94;5048955;28;20028;-68
2022/08/24 00:19:50;;;;;;;1.05;0.40;;;;;;;23.48;59.89;101220.91;5051834;28;20040;-68
2022/08/24 00:22:16;;;;;;;1.50;0.73;;;;;;;23.50;59.20;101224.00;5052939;28;20059;-69
2022/08/24 00:24:41;;;;;;;1.05;0.70;;;;;;;23.58;59.15;101228.91;5052388;28;20386;-68
2022/08/24 00:27:07;;;;;;;1.83;0.80;;;;;;;23.52;59.24;101214.13;5047664;28;20044;-68
2022/08/24 00:29:33;;;;;;;1.55;0.80;;;;;;;23.51;59.91;101222.81;5051521;28;20048;-68
2022/08/24 00:31:59;;;;;;;0.75;0.60;;;;;;;23.37;60.29;101228.63;5052199;28;20025;-68
2022/08/24 00:34:26;;;;;;;0.70;0.70;;;;;;;23.46;59.88;101232.31;5046406;28;20056;-68
2022/08/24 00:36:52;;;;;;;0.60;0.60;;;;;;;23.42;60.22;101230.88;5050885;28;20406;-68
2022/08/24 00:39:18;;;;;;;0.90;0.68;;;;;;;23.40;60.10;101227.78;5052456;28;20116;-68
2022/08/24 00:41:47;;;;;;;3.33;0.85;;;;;;;23.21;61.06;101227.38;5033764;28;20501;-68
2022/08/24 00:44:13;;;;;;;1.80;0.70;;;;;;;23.19;61.19;101227.03;5040034;28;20473;-68
2022/08/24 00:47:14;;;;;;;0.82;0.77;;;;;;;22.99;62.37;101231.81;5033495;28;20029;-68
2022/08/24 00:49:55;;;;;;;0.70;0.60;;;;;;;22.83;62.75;101222.72;5029867;28;20092;-68
2022/08/24 00:52:28;;;;;;;0.82;0.68;;;;;;;22.93;62.46;101224.47;5041284;28;20392;-68
2022/08/24 00:54:58;;;;;;;1.38;0.70;;;;;;;22.89;63.33;101224.56;5052037;28;20041;-68
2022/08/24 00:57:29;;;;;;;1.63;0.80;;;;;;;22.90;63.36;101223.34;5033338;28;20497;-68
2022/08/24 01:00:26;;;;;;;0.93;0.70;;;;;;;22.82;63.51;101223.94;5034487;28;20118;-68
2022/08/24 01:03:03;;;;;;;1.23;0.65;;;;;;;22.91;63.42;101224.13;5046567;28;20111;-68
2022/08/24 01:05:30;;;;;;;1.10;0.73;;;;;;;22.99;63.11;101228.28;5051743;28;20037;-68
2022/08/24 01:07:57;;;;;;;3.28;0.90;;;;;;;22.95;63.47;101228.34;5050855;28;20036;-68
2022/08/24 01:10:26;;;;;;;2.90;0.80;;;;;;;22.90;63.33;101228.84;5026001;28;20500;-68
2022/08/24 01:12:56;;;;;;;0.90;0.57;;;;;;;22.96;63.94;101226.34;5041239;28;20036;-68
2022/08/24 01:15:21;;;;;;;0.70;0.60;;;;;;;23.07;62.54;101227.69;5051544;28;20033;-68
2022/08/24 01:20:33;;;;;;;1.98;1.73;;;;;;;23.02;63.39;101232.91;5047360;28;20418;-68
2022/08/24 01:23:37;;;;;;;1.42;0.80;;;;;;;22.96;63.44;101226.34;5051092;28;20036;-68
2022/08/24 01:26:05;;;;;;;2.00;0.98;;;;;;;22.99;64.00;101223.56;5050607;28;20033;-68
2022/08/24 01:28:31;;;;;;;1.23;0.80;;;;;;;23.00;63.68;101221.56;5032599;28;20428;-68
2022/08/24 01:30:57;;;;;;;0.75;0.75;;;;;;;23.06;63.93;101225.34;5033062;28;20400;-68
2022/08/24 01:33:30;;;;;;;1.00;0.77;;;;;;;22.81;64.33;101225.91;5051311;28;20025;-68
2022/08/24 01:36:07;;;;;;;0.98;0.55;;;;;;;22.84;64.34;101235.28;5037728;28;20405;-68
2022/08/24 01:38:33;;;;;;;1.75;0.80;;;;;;;22.77;65.28;101227.94;5029327;28;20025;-68
2022/08/24 01:41:01;;;;;;;2.55;1.17;;;;;;;22.74;65.76;101236.25;5050748;28;20105;-68
2022/08/24 01:43:28;;;;;;;0.88;0.63;;;;;;;22.70;65.08;101230.06;5032238;28;20094;-68
2022/08/24 01:45:53;;;;;;;0.85;0.70;;;;;;;22.70;66.20;101230.06;5030667;28;20033;-68
2022/08/24 01:48:19;;;;;;;0.85;0.65;;;;;;;22.85;65.95;101228.56;5051120;28;20051;-68
2022/08/24 01:50:46;;;;;;;2.22;1.02;;;;;;;22.75;66.50;101232.28;5024383;28;20033;-68
2022/08/24 01:53:12;;;;;;;1.15;0.90;;;;;;;22.81;66.29;101228.63;5028837;28;20029;-68
2022/08/24 01:55:39;;;;;;;0.90;0.80;;;;;;;22.86;65.64;101224.63;5032769;28;20029;-68
2022/08/24 01:58:05;;;;;;;0.90;0.70;;;;;;;22.62;67.58;101234.91;5041220;28;20044;-68
2022/08/24 02:00:31;;;;;;;1.52;0.82;;;;;;;22.56;67.39;101228.34;5027952;28;20034;-68
2022/08/24 02:02:56;;;;;;;1.00;0.90;;;;;;;22.71;66.31;101232.38;5032425;28;20051;-68
2022/08/24 02:05:23;;;;;;;1.35;1.08;;;;;;;22.59;67.49;101237.75;5032515;28;20389;-68
2022/08/24 02:07:50;;;;;;;1.73;1.23;;;;;;;22.52;67.75;101238.63;5030386;28;20471;-68
2022/08/24 02:10:17;;;;;;;1.60;0.95;;;;;;;22.54;67.65;101247.22;5033710;28;20060;-68
2022/08/24 02:12:56;;;;;;;1.90;1.00;;;;;;;22.42;67.85;101243.13;5033573;28;20640;-68
2022/08/24 02:15:36;;;;;;;1.45;1.02;;;;;;;22.33;69.09;101242.13;5028224;28;20029;-69
2022/08/24 02:18:02;;;;;;;0.90;0.88;;;;;;;22.40;68.79;101250.22;5051587;28;20171;-68
2022/08/24 02:20:29;;;;;;;1.85;1.17;;;;;;;22.28;69.39;101242.59;5047286;28;20103;-68
2022/08/24 02:22:55;;;;;;;1.13;0.90;;;;;;;22.33;69.23;101242.13;5050387;28;20044;-69
2022/08/24 02:25:23;;;;;;;1.30;1.05;;;;;;;22.37;69.43;101242.81;5033186;28;20029;-68
2022/08/24 02:27:48;;;;;;;2.45;1.13;;;;;;;22.41;69.50;101235.31;5042742;28;20082;-68
2022/08/24 02:30:15;;;;;;;3.45;1.10;;;;;;;22.33;69.52;101242.13;5045438;28;20036;-68
2022/08/24 02:32:41;;;;;;;1.13;0.80;;;;;;;22.30;69.42;101235.50;5047999;28;20102;-68
2022/08/24 02:35:07;;;;;;;1.23;0.88;;;;;;;22.28;69.78;101239.84;5031397;28;20078;-69
2022/08/24 02:37:33;;;;;;;2.03;1.05;;;;;;;22.28;70.05;101250.81;5042337;28;20029;-68
2022/08/24 02:39:59;;;;;;;1.33;0.90;;;;;;;22.25;70.16;101248.94;5031573;28;20025;-68
2022/08/24 02:42:26;;;;;;;1.77;0.90;;;;;;;22.31;70.54;101250.00;5032059;28;20100;-68
2022/08/24 02:44:52;;;;;;;0.90;0.85;;;;;;;22.05;71.25;101248.88;5031638;28;20573;-68
2022/08/24 02:47:17;;;;;;;5.65;0.95;;;;;;;22.09;71.14;101251.56;5028050;28;20116;-68
2022/08/24 02:49:43;;;;;;;2.15;1.15;;;;;;;22.08;71.75;101244.53;5031467;28;20051;-68
2022/08/24 02:52:09;;;;;;;1.35;1.05;;;;;;;22.21;70.75;101253.69;5030846;28;20095;-69
2022/08/24 02:54:36;;;;;;;1.90;1.10;;;;;;;22.20;71.37;101249.41;5029833;28;20079;-68
2022/08/24 02:57:01;;;;;;;2.28;1.17;;;;;;;22.21;70.84;101251.75;5046068;28;20471;-67
2022/08/24 02:59:27;;;;;;;1.27;1.17;;;;;;;22.07;71.25;101243.75;5032040;28;20060;-67
2022/08/24 03:01:52;;;;;;;2.78;1.17;;;;;;;22.03;71.29;101253.22;5032153;28;20057;-66
2022/08/24 03:04:19;;;;;;;2.03;1.13;;;;;;;21.98;71.88;101257.25;5039048;28;20086;-67
2022/08/24 03:06:47;;;;;;;1.77;0.95;;;;;;;21.92;72.39;101255.38;5031211;28;20497;-67
2022/08/24 03:09:13;;;;;;;2.55;1.00;;;;;;;21.77;72.87;101248.53;5041751;28;20088;-67
2022/08/24 03:11:39;;;;;;;0.90;0.90;;;;;;;21.75;73.81;101256.41;5038610;28;20390;-67
2022/08/24 03:14:05;;;;;;;1.77;1.13;;;;;;;21.71;73.82;101253.72;5042247;28;20515;-67
2022/08/24 03:16:31;;;;;;;1.15;1.00;;;;;;;21.89;72.78;101256.97;5031890;28;20120;-67
2022/08/24 03:18:57;;;;;;;1.48;1.10;;;;;;;21.83;73.60;101252.41;5028005;28;20108;-67
2022/08/24 03:21:25;;;;;;;1.58;1.10;;;;;;;21.98;72.90;101249.00;5032871;28;20037;-67
2022/08/24 03:23:51;;;;;;;1.30;0.98;;;;;;;21.93;73.02;101254.19;5032384;28;20024;-67
2022/08/24 03:26:17;;;;;;;1.58;0.95;;;;;;;21.88;73.28;101251.91;5049252;28;20037;-67
2022/08/24 03:28:43;;;;;;;1.67;0.95;;;;;;;21.66;74.31;101256.94;5032338;28;20041;-67
2022/08/24 03:31:08;;;;;;;6.13;1.00;;;;;;;21.67;74.23;101255.75;5032786;28;20597;-67
2022/08/24 03:33:34;;;;;;;1.63;1.00;;;;;;;21.55;74.80;101265.31;5035778;28;20056;-66
2022/08/24 03:36:00;;;;;;;4.15;1.10;;;;;;;21.46;75.10;101254.13;5030962;28;20643;-67
2022/08/24 03:38:27;;;;;;;1.98;1.15;;;;;;;21.49;75.29;101247.78;5036326;28;20485;-67
2022/08/24 03:40:53;;;;;;;1.05;0.95;;;;;;;21.39;75.65;101258.91;5037180;28;20532;-67
2022/08/24 03:46:06;;;;;;;3.25;1.40;;;;;;;21.28;76.15;101253.59;5038697;28;20036;-67
2022/08/24 03:48:32;;;;;;;1.88;1.20;;;;;;;21.31;76.31;101241.03;5034271;28;20026;-67
2022/08/24 03:50:58;;;;;;;1.20;1.00;;;;;;;21.17;76.67;101246.69;5032348;28;20383;-67
2022/08/24 03:53:24;;;;;;;2.78;1.00;;;;;;;21.24;76.61;101255.59;5029388;28;20117;-67
2022/08/24 03:55:51;;;;;;;2.20;1.10;;;;;;;21.27;76.41;101245.78;5027147;28;20037;-67
2022/08/24 03:58:17;;;;;;;2.15;1.10;;;;;;;21.05;77.36;101247.25;5035774;28;20098;-67
2022/08/24 04:00:43;;;;;;;1.80;1.05;;;;;;;20.91;78.13;101252.84;5035816;28;20448;-67
2022/08/24 04:03:12;;;;;;;4.50;1.20;;;;;;;20.96;78.36;101249.69;5030183;28;20029;-67
2022/08/24 04:05:39;;;;;;;2.47;1.38;;;;;;;20.93;78.54;101248.53;5030402;28;20024;-67
2022/08/24 04:08:05;;;;;;;1.95;1.17;;;;;;;20.91;78.92;101256.38;5032717;28;20091;-66
2022/08/24 04:10:32;;;;;;;1.10;1.00;;;;;;;21.14;77.92;101259.25;5029914;28;20029;-67
2022/08/24 04:13:00;;;;;;;2.80;1.35;;;;;;;21.07;78.12;101256.59;5031574;28;20057;-67
2022/08/24 04:15:26;;;;;;;1.33;1.23;;;;;;;20.95;78.93;101262.59;5034608;28;20489;-67
2022/08/24 04:17:53;;;;;;;1.58;1.15;;;;;;;20.99;78.94;101273.50;5034806;28;20021;-67
2022/08/24 04:20:19;;;;;;;2.80;1.10;;;;;;;20.89;79.06;101268.94;5035308;28;20067;-67
2022/08/24 04:22:44;;;;;;;1.77;1.15;;;;;;;20.74;80.05;101276.53;5024126;28;20516;-67
2022/08/24 04:25:11;;;;;;;1.58;1.17;;;;;;;20.77;80.11;101275.72;5027602;28;20039;-67
2022/08/24 04:27:39;;;;;;;2.47;1.40;;;;;;;20.69;80.60;101277.75;5033872;28;20029;-67
2022/08/24 04:30:06;;;;;;;2.15;1.30;;;;;;;20.65;81.52;101276.25;5052253;28;20024;-67
2022/08/24 04:32:44;;;;;;;1.33;1.10;;;;;;;20.69;81.65;101283.22;5030560;28;20043;-67
2022/08/24 04:35:10;;;;;;;3.08;1.13;;;;;;;20.93;80.96;101286.09;5033046;28;20033;-67
2022/08/24 04:37:36;;;;;;;1.30;1.00;;;;;;;21.10;80.14;101288.66;5027575;28;20065;-67
2022/08/24 04:40:04;;;;;;;1.92;1.20;;;;;;;20.96;79.79;101279.81;5027494;28;20028;-67
2022/08/24 04:42:34;;;;;;;1.10;0.90;;;;;;;21.09;78.95;101278.09;5035108;28;20485;-67
2022/08/24 04:44:59;;;;;;;1.92;1.10;;;;;;;21.23;78.59;101275.97;5068316;22;20055;-68
2022/08/24 04:47:28;;;;;;;5.00;1.80;;;;;;;21.20;78.14;101276.00;5048923;28;20400;-68
2022/08/24 04:49:53;;;;;;;3.63;1.45;;;;;;;21.32;77.58;101278.19;5036298;28;20082;-67
2022/08/24 04:52:20;;;;;;;3.35;1.25;;;;;;;21.37;77.22;101280.47;5034131;28;20029;-68
2022/08/24 04:54:46;;;;;;;2.55;1.40;;;;;;;21.20;77.66;101274.03;5030051;28;20037;-68
2022/08/24 04:57:18;;;;;;;1.42;1.17;;;;;;;21.32;77.30;101278.19;5026099;28;20037;-68
2022/08/24 04:59:45;;;;;;;1.48;1.02;;;;;;;21.19;78.32;101282.69;5033297;28;20028;-68
2022/08/24 05:02:11;;;;;;;3.08;1.10;;;;;;;21.11;78.50;101284.75;5044295;28;20041;-67
2022/08/24 05:04:37;;;;;;;1.70;1.48;;;;;;;21.15;79.05;101281.94;5049083;28;20029;-67
2022/08/24 05:07:02;;;;;;;5.43;1.65;;;;;;;21.13;79.29;101281.59;5032581;28;20032;-68
2022/08/24 05:09:28;;;;;;;2.20;1.50;;;;;;;21.21;79.38;101278.34;5033224;28;20032;-68
2022/08/24 05:11:56;;;;;;;1.83;1.40;;;;;;;21.30;78.88;101280.56;5028243;28;20040;-68
2022/08/24 05:14:26;;;;;;;3.80;1.33;;;;;;;21.24;79.75;101274.78;5014696;28;20135;-68
2022/08/24 05:16:52;;;;;;;2.00;1.40;;;;;;;21.32;80.17;101278.97;5027403;28;20316;-68
2022/08/24 05:19:17;;;;;;;5.72;1.33;;;;;;;21.43;79.39;101287.81;5031395;28;20448;-68
2022/08/24 05:21:43;;;;;;;2.53;1.95;;;;;;;21.49;79.74;101288.13;5050750;28;20385;-68
2022/08/24 05:24:09;;;;;;;5.03;1.42;;;;;;;21.55;80.00;101291.97;5047299;28;20503;-68
2022/08/24 05:26:36;;;;;;;1.80;1.40;;;;;;;21.60;80.06;101294.25;5032121;28;20067;-68
2022/08/24 05:29:02;;;;;;;1.83;1.50;;;;;;;21.67;79.98;101301.59;5030568;28;20029;-68
2022/08/24 05:31:43;;;;;;;3.63;1.30;;;;;;;21.61;81.11;101309.50;5032597;28;20033;-68
2022/08/24 05:34:09;;;;;;;1.98;1.33;;;;;;;21.49;82.02;101318.28;5034398;28;20025;-68
2022/08/24 05:36:39;;;;;;;3.15;1.60;;;;;;;21.50;82.30;101312.38;5050581;28;20070;-69
2022/08/24 05:39:11;;;;;;;1.58;1.30;;;;;;;21.52;83.12;101312.75;5029475;28;20025;-68
2022/08/24 05:41:40;;;;;;;2.22;1.35;;;;;;;21.45;83.53;101314.81;5032627;28;20438;-69
2022/08/24 05:44:14;;;;;;;3.53;1.40;;;;;;;21.63;83.59;101314.56;5029482;28;20052;-68
2022/08/24 05:46:42;;;;;;;3.53;1.38;;;;;;;21.71;83.41;101316.81;5032343;28;20033;-68
2022/08/24 05:49:08;;;;;;;1.70;1.33;;;;;;;21.81;83.86;101332.38;5050312;28;20041;-68
2022/08/24 05:51:35;;;;;;;2.22;1.50;;;;;;;21.80;83.70;101325.31;5032753;28;20075;-68
2022/08/24 05:54:07;;;;;;;3.67;1.45;;;;;;;21.79;83.88;101326.50;5027656;28;20089;-67
2022/08/24 05:56:44;;;;;;;1.98;1.40;;;;;;;22.00;83.83;101330.91;5027298;28;20036;-67
2022/08/24 05:59:10;;;;;;;3.78;1.45;;;;;;;22.11;83.38;101334.25;5017283;28;20590;-67
2022/08/24 06:01:37;;;;;;;2.17;1.13;;;;;;;22.04;84.28;101337.88;5025653;28;20123;-68
2022/08/24 06:04:04;;;;;;;3.33;1.42;;;;;;;22.15;84.25;101334.97;5031006;28;20043;-67
2022/08/24 06:06:30;;;;;;;5.40;1.50;;;;;;;22.32;83.81;101334.66;5031906;28;20037;-67
2022/08/24 06:08:58;;;;;;;4.03;1.40;;;;;;;22.31;84.04;101329.59;5032091;28;20029;-67
2022/08/24 06:11:31;;;;;;;2.58;1.33;;;;;;;22.46;83.93;101333.66;5023907;28;20028;-67
2022/08/24 06:14:05;;;;;;;3.95;1.45;;;;;;;22.64;83.23;101334.16;5028242;28;20183;-69
2022/08/24 06:16:37;;;;;;;2.35;1.20;;;;;;;22.62;83.41;101333.78;5030830;28;20111;-67
2022/08/24 06:19:04;;;;;;;7.47;1.92;;;;;;;22.72;83.03;101335.56;5031887;28;20127;-67
2022/08/24 06:21:32;;;;;;;4.13;1.45;;;;;;;22.79;83.66;101340.94;5026935;28;20036;-67
2022/08/24 06:23:58;;;;;;;3.08;1.40;;;;;;;22.85;83.29;101342.00;5016863;28;20155;-67
2022/08/24 06:29:10;;;;;;;4.40;1.15;;;;;;;22.90;84.55;101348.97;5015791;28;20041;-67
2022/08/24 06:31:44;;;;;;;2.78;1.50;;;;;;;23.07;84.05;101340.38;5037249;28;20557;-67
2022/08/24 06:34:12;;;;;;;1.60;1.25;;;;;;;23.25;83.20;101346.28;5025914;28;21795;-67
2022/08/24 06:36:38;;;;;;;1.98;1.40;;;;;;;23.35;81.88;101352.78;5027364;28;20029;-68
2022/08/24 06:39:04;;;;;;;4.43;1.50;;;;;;;23.50;82.89;101351.28;5041766;28;20029;-68
2022/08/24 06:41:30;;;;;;;1.50;1.30;;;;;;;23.70;81.19;101348.50;5030802;28;20115;-67
2022/08/24 06:43:56;;;;;;;1.58;1.10;;;;;;;23.97;80.08;101351.81;5032104;28;20120;-67
2022/08/24 06:46:27;;;;;;;3.53;1.27;;;;;;;24.28;77.96;101350.28;5028976;28;20038;-67
2022/08/24 06:48:54;;;;;;;2.25;1.23;;;;;;;24.20;78.29;101354.44;5031784;28;20295;-67
2022/08/24 06:51:24;;;;;;;2.63;1.67;;;;;;;24.56;78.15;101362.59;5031985;28;20101;-67
2022/08/24 06:53:50;;;;;;;2.63;1.08;;;;;;;24.79;76.29;101360.41;5027290;28;20036;-67
2022/08/24 06:56:17;;;;;;;2.47;1.10;;;;;;;25.03;76.03;101360.94;5030089;28;20708;-69
2022/08/24 06:58:43;;;;;;;1.42;1.00;;;;;;;24.98;74.34;101361.47;5027997;28;20116;-67
2022/08/24 07:01:25;;;;;;;2.88;1.02;;;;;;;25.16;74.79;101372.78;5028651;28;20476;-67
2022/08/24 07:03:52;;;;;;;2.58;0.90;;;;;;;25.19;75.31;101371.13;5026417;28;20118;-68
2022/08/24 07:06:47;;;;;;;1.15;1.02;;;;;;;25.53;72.82;101379.63;5045940;28;20446;-67
2022/08/24 07:09:13;;;;;;;3.88;1.02;;;;;;;25.57;72.87;101372.03;5029630;28;20988;-68
2022/08/24 07:11:38;;;;;;;2.40;1.00;;;;;;;25.63;73.29;101376.53;5037352;28;20090;-67
2022/08/24 07:14:05;;;;;;;1.70;1.02;;;;;;;25.91;71.75;101367.41;5029513;28;20029;-67
2022/08/24 07:16:32;;;;;;;2.45;1.00;;;;;;;26.04;71.43;101370.16;5029699;28;20075;-65
2022/08/24 07:19:05;;;;;;;1.10;0.80;;;;;;;26.33;70.19;101372.78;5033387;28;20404;-65
2022/08/24 07:21:31;;;;;;;1.17;0.77;;;;;;;26.40;69.52;101378.09;5051398;28;20029;-66
2022/08/24 07:23:59;;;;;;;1.40;1.00;;;;;;;26.55;68.42;101382.69;5017334;28;20519;-65
2022/08/24 07:26:27;;;;;;;1.00;0.82;;;;;;;26.66;68.32;101387.84;5029780;28;20032;-67
2022/08/24 07:29:03;;;;;;;1.15;0.80;;;;;;;26.63;68.34;101386.78;5029473;28;20025;-67
2022/08/24 07:31:32;;;;;;;1.58;0.95;;;;;;;26.71;67.88;101385.31;5034661;28;20045;-66
2022/08/24 07:34:08;;;;;;;1.50;0.93;;;;;;;26.74;67.91;101381.66;5036370;28;20033;-66
2022/08/24 07:36:36;;;;;;;1.08;0.98;;;;;;;26.87;67.44;101389.16;5034034;28;20040;-66
2022/08/24 07:39:04;;;;;;;3.47;0.90;;;;;;;26.95;66.34;101387.66;5035657;28;20035;-66
2022/08/24 07:41:30;;;;;;;2.00;0.90;;;;;;;26.79;66.15;101388.59;5044590;28;20057;-65
2022/08/24 07:43:57;;;;;;;4.78;0.98;;;;;;;26.74;66.67;101389.19;5025826;28;20064;-66
2022/08/24 07:46:23;;;;;;;1.20;0.70;;;;;;;26.89;68.16;101381.19;5032981;28;20029;-65
2022/08/24 07:48:49;;;;;;;0.80;0.75;;;;;;;27.25;67.44;101389.75;5033585;28;20040;-65
2022/08/24 07:51:17;;;;;;;3.17;0.85;;;;;;;27.49;65.46;101391.59;5035238;28;20044;-66
2022/08/24 07:53:43;;;;;;;2.53;1.02;;;;;;;27.54;64.60;101393.81;5048964;28;20523;-65
2022/08/24 07:56:11;;;;;;;1.95;1.00;;;;;;;27.35;64.68;101396.91;5030778;28;20037;-65
2022/08/24 07:58:39;;;;;;;1.27;0.80;;;;;;;27.42;65.76;101391.88;5033736;28;20413;-65
2022/08/24 08:01:06;;;;;;;0.80;0.80;;;;;;;27.73;66.28;101397.44;5030247;28;20031;-65
2022/08/24 08:03:33;;;;;;;1.30;0.80;;;;;;;27.64;63.86;101389.09;5041161;28;20435;-65
2022/08/24 08:06:05;;;;;;;0.88;0.68;;;;;;;28.00;64.68;101397.56;5047788;28;20091;-65
2022/08/24 08:08:34;;;;;;;2.08;0.90;;;;;;;28.08;62.78;101406.38;5048613;28;20116;-65
2022/08/24 08:11:02;;;;;;;1.25;0.90;;;;;;;28.19;63.70;101404.72;5031742;28;20490;-67
2022/08/24 08:13:29;;;;;;;4.53;1.20;;;;;;;27.94;61.75;101412.44;5030438;28;20279;-66
2022/08/24 08:15:55;;;;;;;2.10;0.77;;;;;;;27.84;63.62;101402.53;5041192;28;20107;-65
2022/08/24 08:18:21;;;;;;;1.00;0.90;;;;;;;28.01;62.32;101404.66;5033335;28;20036;-65
2022/08/24 08:20:48;;;;;;;1.13;0.80;;;;;;;28.09;61.88;101408.69;5028130;28;20032;-65
2022/08/24 08:26:00;;;;;;;1.42;0.88;;;;;;;28.48;59.96;101404.31;5046568;28;20160;-66
2022/08/24 08:28:52;;;;;;;1.95;0.88;;;;;;;28.75;59.38;101407.16;5047242;28;20079;-66
2022/08/24 08:31:18;;;;;;;0.82;0.73;;;;;;;29.01;60.23;101408.41;5029602;28;20431;-66
2022/08/24 08:33:43;;;;;;;1.45;0.73;;;;;;;29.26;58.19;101415.66;5028348;28;20040;-65
2022/08/24 08:36:13;;;;;;;1.92;0.90;;;;;;;29.19;58.23;101399.31;5031618;28;20552;-65
2022/08/24 08:38:45;;;;;;;0.70;0.68;;;;;;;29.17;56.38;101410.13;5032584;28;20497;-65
2022/08/24 08:41:17;;;;;;;1.27;0.80;;;;;;;28.94;58.21;101405.91;5035030;28;20037;-66
2022/08/24 08:44:05;;;;;;;1.52;1.00;;;;;;;29.15;56.59;101409.81;5038853;28;20434;-66
2022/08/24 08:47:03;;;;;;;1.52;0.90;;;;;;;29.53;56.88;101414.81;5029033;28;20119;-66
2022/08/24 08:49:58;;;;;;;1.83;0.80;;;;;;;29.80;54.74;101420.31;5047689;28;20120;-67
2022/08/24 08:52:38;;;;;;;;;;;;;;;29.96;54.88;101414.41;5030117;28;20029;-65
2022/08/24 08:55:25;;;;;;;2.35;0.82;;;;;;;29.82;53.49;101410.28;5030404;28;19921;-66
2022/08/24 08:58:14;;;;;;;0.80;0.75;;;;;;;30.09;53.19;101418.50;5031212;28;20025;-68
2022/08/24 09:00:56;;;;;;;1.80;0.70;;;;;;;29.95;52.81;101405.28;5029257;28;20078;-65
2022/08/24 09:04:13;;;;;;;0.85;0.75;;;;;;;30.10;53.09;101408.16;5033046;28;20029;-66
2022/08/24 09:07:00;;;;;;;1.17;0.90;;;;;;;30.38;51.67;101408.78;5024265;28;20056;-66
2022/08/24 09:09:45;;;;;;;1.65;0.82;;;;;;;30.49;51.67;101415.38;5030477;28;20033;-68
2022/08/24 09:12:10;;;;;;;1.42;1.00;;;;;;;30.59;51.65;101413.28;5029027;28;20052;-66
2022/08/24 09:14:51;;;;;;;0.85;0.70;;;;;;;30.71;50.96;101404.72;5032093;28;20064;-65
2022/08/24 09:17:28;;;;;;;1.60;1.00;;;;;;;30.93;49.36;101415.53;5038809;28;20029;-66
2022/08/24 09:20:21;;;;;;;1.65;1.08;;;;;;;30.43;50.98;101413.72;5045923;28;20028;-66
2022/08/24 09:22:47;;;;;;;1.13;1.02;;;;;;;30.56;51.63;101419.81;5029153;28;20041;-65
2022/08/24 09:25:38;;;;;;;1.38;0.80;;;;;;;30.90;50.34;101399.78;5033276;28;20052;-66
2022/08/24 09:28:10;;;;;;;3.13;0.82;;;;;;;31.23;50.74;101403.19;5030252;28;20108;-65
2022/08/24 09:31:09;;;;;;;2.60;0.88;;;;;;;31.29;49.55;101414.44;5044802;28;20032;-65
2022/08/24 09:33:44;;;;;;;1.70;0.85;;;;;;;31.62;49.00;101399.09;5050020;28;20485;-66
2022/08/24 09:36:44;;;;;;;1.88;0.82;;;;;;;31.64;49.25;101396.59;5043221;28;20726;-65
2022/08/24 09:39:39;;;;;;;1.13;0.90;;;;;;;31.45;47.66;101406.41;5050458;28;20063;-66
2022/08/24 09:42:20;;;;;;;1.50;0.80;;;;;;;31.73;47.92;101402.06;5046141;28;20525;-65
2022/08/24 09:45:09;;;;;;;1.35;1.00;;;;;;;32.11;47.55;101403.16;5047921;28;20048;-66
2022/08/24 09:47:59;;;;;;;2.03;0.90;;;;;;;32.26;46.24;101404.66;5047014;28;20036;-65
2022/08/24 09:51:07;;;;;;;1.75;0.80;;;;;;;32.31;45.91;101397.63;5041303;28;20036;-66
2022/08/24 09:53:35;;;;;;;2.33;1.17;;;;;;;32.48;45.83;101399.38;5041499;28;20032;-65
2022/08/24 09:56:18;;;;;;;1.02;0.93;;;;;;;32.07;45.65;101394.22;5049151;28;20071;-66
2022/08/24 09:58:57;;;;;;;2.50;1.00;;;;;;;31.98;45.50;101395.88;5050138;28;20029;-65
2022/08/24 10:01:42;;;;;;;0.80;0.80;;;;;;;32.09;45.22;101391.72;5047492;28;20033;-65
2022/08/24 10:04:16;;;;;;;1.33;1.02;;;;;;;32.24;45.09;101387.63;5048909;28;20037;-65
2022/08/24 10:07:01;;;;;;;2.90;0.90;;;;;;;32.51;45.72;101387.25;5049589;28;20480;-65
2022/08/24 10:09:41;;;;;;;0.70;0.70;;;;;;;32.43;44.07;101393.69;5049733;28;20037;-66
2022/08/24 10:12:14;;;;;;;0.85;0.63;;;;;;;32.74;45.11;101385.47;5043194;28;20128;-65
2022/08/24 10:14:51;;;;;;;1.02;0.77;;;;;;;33.06;43.95;101389.94;5050043;28;20029;-65
2022/08/24 10:17:31;;;;;;;1.40;0.85;;;;;;;33.11;44.10;101394.03;5049370;28;20044;-65
2022/08/24 10:20:07;;;;;;;0.80;0.70;;;;;;;32.89;42.15;101382.59;5050092;28;20037;-66
2022/08/24 10:22:42;;;;;;;1.58;0.82;;;;;;;32.80;42.80;101386.31;5049856;28;20044;-65
2022/08/24 10:26:02;;;;;;;1.00;0.80;;;;;;;32.85;43.98;101391.19;5049817;28;20037;-65
2022/08/24 10:29:04;;;;;;;1.38;0.60;;;;;;;33.31;42.74;101386.38;4961461;28;20038;-65
2022/08/24 10:31:37;;;;;;;2.70;0.52;;;;;;;33.51;42.21;101385.50;5031168;28;20048;-66
2022/08/24 10:34:22;;;;;;;4.47;0.93;;;;;;;33.35;42.37;101374.97;5043370;28;20093;-66
2022/08/24 10:37:19;;;;;;;1.00;0.65;;;;;;;33.59;41.87;101381.00;5027772;28;20110;-66
2022/08/24 10:39:55;;;;;;;1.30;0.68;;;;;;;33.66;41.04;101381.31;5044384;28;20033;-66
2022/08/24 10:45:47;;;;;;;0.70;0.60;;;;;;;33.89;40.83;101370.31;5057397;22;20618;-70
2022/08/24 10:48:30;;;;;;;0.77;0.60;;;;;;;33.99;40.75;101369.63;5027592;28;20053;-68
2022/08/24 10:51:17;;;;;;;0.75;0.50;;;;;;;34.22;41.11;101371.28;5023563;28;20034;-69
2022/08/24 10:53:49;;;;;;;1.05;0.70;;;;;;;34.14;39.87;101367.44;5028290;28;20436;-68
2022/08/24 10:56:35;;;;;;;0.60;0.60;;;;;;;34.31;40.33;101370.28;5028784;28;20033;-68
2022/08/24 10:59:23;;;;;;;0.98;0.60;;;;;;;34.40;39.69;101378.47;5023688;28;20033;-69
2022/08/24 11:02:00;;;;;;;0.90;0.60;;;;;;;34.59;39.00;101360.00;5024557;28;20029;-68
2022/08/24 11:04:29;;;;;;;3.10;0.63;;;;;;;34.30;39.44;101374.38;5029821;28;20553;-67
2022/08/24 11:07:08;;;;;;;0.95;0.60;;;;;;;33.64;39.82;101366.31;5029364;28;20033;-68
2022/08/24 11:09:50;;;;;;;0.70;0.60;;;;;;;34.04;39.16;101360.50;5027766;28;20029;-68
2022/08/24 11:12:25;;;;;;;1.25;0.60;;;;;;;34.25;39.54;101363.91;5029610;28;20029;-69
2022/08/24 11:14:52;;;;;;;3.15;1.40;;;;;;;34.51;39.68;101364.56;5025575;28;20029;-68
2022/08/24 11:17:20;;;;;;;0.45;0.45;;;;;;;34.77;39.98;101367.16;5027985;28;20029;-68
2022/08/24 11:19:47;;;;;;;0.60;0.50;;;;;;;34.72;39.37;101367.94;5029061;28;20036;-68
2022/08/24 11:22:32;;;;;;;0.75;0.50;;;;;;;34.90;39.28;101362.63;5027583;28;20038;-68
2022/08/24 11:25:18;;;;;;;0.60;0.40;;;;;;;35.20;39.37;101362.94;5023752;28;20041;-68
2022/08/24 11:27:47;;;;;;;0.60;0.57;;;;;;;35.06;37.89;101358.34;5022688;28;20512;-68
2022/08/24 11:30:22;;;;;;;1.60;0.50;;;;;;;34.96;38.26;101360.63;5028920;28;20091;-68
2022/08/24 11:32:52;;;;;;;0.70;0.60;;;;;;;35.06;38.67;101352.72;5023846;28;20029;-68
2022/08/24 11:35:25;;;;;;;2.58;0.60;;;;;;;34.68;38.32;101359.78;5033614;28;20033;-68
2022/08/24 11:37:55;;;;;;;1.92;0.70;;;;;;;34.89;39.03;101360.31;5007963;28;20496;-68
2022/08/24 11:40:26;;;;;;;1.23;0.70;;;;;;;35.13;38.71;101358.63;5027713;28;20052;-68
2022/08/24 11:43:17;;;;;;;3.22;0.98;;;;;;;35.15;38.16;101363.72;5029957;28;20103;-68
2022/08/24 11:45:45;;;;;;;0.70;0.70;;;;;;;34.94;38.50;101357.53;5013996;28;20022;-68
2022/08/24 11:48:13;;;;;;;0.88;0.70;;;;;;;34.88;37.78;101364.41;5028145;28;20056;-68
2022/08/24 11:50:44;;;;;;;0.95;0.50;;;;;;;35.14;38.15;101365.75;5023955;28;20077;-68
2022/08/24 11:53:34;;;;;;;1.10;0.60;;;;;;;35.28;37.81;101367.53;5028059;28;20053;-68
2022/08/24 11:56:14;;;;;;;0.80;0.80;;;;;;;35.39;37.60;101367.53;5023924;28;20037;-68
2022/08/24 11:59:01;;;;;;;5.07;0.60;;;;;;;35.37;36.43;101372.88;5031933;28;20030;-68